createdAt,value
2022-07-29T00:02:00.763Z,20.68
2022-07-29T00:04:31.287Z,20.66
2022-07-29T00:07:04.661Z,20.66
2022-07-29T00:09:50.419Z,20.66
2022-07-29T00:12:27.699Z,20.61
2022-07-29T00:15:01.213Z,20.58
2022-07-29T00:17:31.423Z,20.60
2022-07-29T00:20:01.727Z,20.60
2022-07-29T00:22:32.365Z,20.61
2022-07-29T00:25:03.192Z,20.66
2022-07-29T00:27:36.626Z,20.70
2022-07-29T00:30:08.202Z,20.70
2022-07-29T00:32:38.866Z,20.65
2022-07-29T00:35:22.973Z,20.59
2022-07-29T00:37:53.612Z,20.57
2022-07-29T00:40:24.014Z,20.55
2022-07-29T00:42:57.299Z,20.51
2022-07-29T00:45:33.976Z,20.47
2022-07-29T00:48:05.773Z,20.51
2022-07-29T00:50:36.584Z,20.55
2022-07-29T00:53:08.333Z,20.67
2022-07-29T00:55:39.557Z,20.61
2022-07-29T00:58:13.205Z,20.69
2022-07-29T01:00:50.704Z,20.69
2022-07-29T01:03:20.988Z,20.65
2022-07-29T01:05:52.005Z,20.57
2022-07-29T01:08:24.213Z,20.52
2022-07-29T01:10:55.975Z,20.48
2022-07-29T01:13:30.922Z,20.42
2022-07-29T01:16:07.895Z,20.41
2022-07-29T01:18:42.163Z,20.34
2022-07-29T01:21:39.838Z,20.34
2022-07-29T01:24:27.836Z,20.32
2022-07-29T01:27:03.740Z,20.28
2022-07-29T01:29:41.144Z,20.26
2022-07-29T01:32:27.753Z,20.32
2022-07-29T01:35:04.980Z,20.41
2022-07-29T01:37:42.775Z,20.30
2022-07-29T01:40:23.863Z,20.23
2022-07-29T01:42:58.836Z,20.19
2022-07-29T01:45:42.598Z,20.18
2022-07-29T01:48:19.539Z,20.15
2022-07-29T01:50:53.604Z,20.14
2022-07-29T01:53:38.355Z,20.10
2022-07-29T01:56:10.764Z,20.25
2022-07-29T01:58:45.205Z,20.36
2022-07-29T02:01:20.587Z,20.30
2022-07-29T02:03:52.051Z,20.26
2022-07-29T02:06:25.160Z,20.25
2022-07-29T02:08:58.014Z,20.23
2022-07-29T02:11:28.731Z,20.24
2022-07-29T02:14:02.460Z,20.20
2022-07-29T02:16:37.584Z,20.21
2022-07-29T02:19:10.598Z,20.13
2022-07-29T02:21:42.111Z,20.13
2022-07-29T02:24:15.994Z,20.10
2022-07-29T02:26:48.793Z,20.12
2022-07-29T02:29:21.084Z,20.19
2022-07-29T02:31:56.176Z,20.15
2022-07-29T02:34:27.622Z,20.13
2022-07-29T02:37:00.112Z,20.20
2022-07-29T02:39:32.669Z,20.20
2022-07-29T02:42:07.347Z,20.16
2022-07-29T02:44:39.041Z,20.08
2022-07-29T02:47:20.558Z,20.20
2022-07-29T02:49:57.958Z,20.22
2022-07-29T02:52:35.881Z,20.24
2022-07-29T02:55:15.345Z,20.21
2022-07-29T02:57:54.944Z,20.21
2022-07-29T03:00:28.160Z,20.22
2022-07-29T03:03:03.794Z,20.20
2022-07-29T03:05:36.313Z,20.12
2022-07-29T03:08:10.232Z,20.12
2022-07-29T03:10:41.737Z,20.03
2022-07-29T03:13:13.679Z,20.02
2022-07-29T03:15:46.436Z,20.02
2022-07-29T03:18:19.880Z,20.09
2022-07-29T03:20:50.260Z,20.08
2022-07-29T03:23:24.967Z,20.02
2022-07-29T03:25:55.992Z,19.96
2022-07-29T03:28:28.420Z,19.95
2022-07-29T03:30:59.353Z,19.91
2022-07-29T03:33:32.767Z,19.88
2022-07-29T03:36:03.591Z,19.90
2022-07-29T03:38:38.453Z,19.84
2022-07-29T03:41:13.544Z,19.87
2022-07-29T03:43:49.697Z,19.98
2022-07-29T03:46:22.334Z,19.88
2022-07-29T03:49:02.677Z,19.84
2022-07-29T03:51:34.632Z,19.78
2022-07-29T03:54:09.941Z,19.74
2022-07-29T03:56:44.521Z,19.69
2022-07-29T03:59:15.672Z,19.71
2022-07-29T04:01:47.797Z,19.68
2022-07-29T04:04:22.096Z,19.74
2022-07-29T04:06:52.672Z,19.73
2022-07-29T04:09:23.418Z,19.78
2022-07-29T04:12:01.930Z,19.81
2022-07-29T04:14:35.900Z,19.83
2022-07-29T04:17:08.181Z,19.90
2022-07-29T04:19:41.517Z,19.89
2022-07-29T04:22:14.252Z,19.95
2022-07-29T04:24:44.824Z,20.04
2022-07-29T04:27:15.289Z,20.14
2022-07-29T04:29:57.138Z,20.18
2022-07-29T04:32:28.620Z,20.30
2022-07-29T04:35:01.804Z,20.47
2022-07-29T04:37:32.526Z,20.51
2022-07-29T04:40:21.008Z,20.66
2022-07-29T04:42:52.825Z,20.69
2022-07-29T04:45:26.633Z,20.76
2022-07-29T04:47:57.396Z,20.88
2022-07-29T04:50:31.456Z,21.02
2022-07-29T04:53:03.490Z,21.02
2022-07-29T04:55:34.162Z,21.19
2022-07-29T04:58:04.989Z,21.10
2022-07-29T05:00:38.887Z,21.25
2022-07-29T05:03:13.981Z,21.39
2022-07-29T05:05:48.390Z,21.62
2022-07-29T05:08:19.314Z,21.60
2022-07-29T05:10:50.246Z,21.65
2022-07-29T05:13:20.960Z,21.75
2022-07-29T05:15:53.185Z,21.72
2022-07-29T05:18:26.095Z,22.01
2022-07-29T05:21:00.407Z,22.12
2022-07-29T05:23:31.367Z,22.42
2022-07-29T05:26:03.286Z,22.60
2022-07-29T05:28:37.377Z,22.73
2022-07-29T05:31:08.765Z,22.85
2022-07-29T05:33:40.135Z,23.09
2022-07-29T05:36:17.896Z,23.10
2022-07-29T05:38:48.850Z,23.06
2022-07-29T05:41:19.727Z,23.48
2022-07-29T05:43:50.621Z,23.64
2022-07-29T05:46:21.537Z,23.62
2022-07-29T05:48:57.956Z,23.82
2022-07-29T05:51:32.090Z,23.48
2022-07-29T05:54:03.075Z,23.95
2022-07-29T05:56:34.165Z,24.09
2022-07-29T05:59:04.758Z,24.50
2022-07-29T06:01:49.000Z,24.69
2022-07-29T06:04:19.994Z,24.70
2022-07-29T06:06:53.101Z,24.72
2022-07-29T06:09:24.044Z,24.97
2022-07-29T06:11:54.237Z,24.66
2022-07-29T06:14:24.362Z,24.84
2022-07-29T06:16:54.506Z,25.17
2022-07-29T06:19:24.814Z,25.54
2022-07-29T06:21:58.005Z,25.57
2022-07-29T06:24:28.260Z,25.55
2022-07-29T06:26:58.897Z,25.71
2022-07-29T06:29:29.081Z,26.00
2022-07-29T06:31:59.362Z,26.26
2022-07-29T06:34:29.572Z,26.78
2022-07-29T06:37:03.979Z,26.95
2022-07-29T06:39:34.281Z,26.56
2022-07-29T06:42:04.781Z,27.06
2022-07-29T06:44:35.357Z,27.32
2022-07-29T06:47:06.340Z,27.61
2022-07-29T06:49:36.872Z,27.12
2022-07-29T06:52:09.644Z,27.40
2022-07-29T06:54:40.997Z,27.91
2022-07-29T06:57:11.191Z,28.43
2022-07-29T06:59:41.370Z,28.64
2022-07-29T07:02:12.100Z,28.72
2022-07-29T07:04:42.322Z,28.92
2022-07-29T07:07:15.003Z,28.55
2022-07-29T07:09:45.154Z,28.19
2022-07-29T07:12:15.568Z,27.86
2022-07-29T07:14:45.769Z,28.09
2022-07-29T07:17:15.964Z,28.12
2022-07-29T07:19:46.246Z,28.31
2022-07-29T07:22:19.041Z,28.88
2022-07-29T07:24:49.178Z,29.26
2022-07-29T07:27:19.420Z,28.93
2022-07-29T07:29:49.594Z,29.29
2022-07-29T07:32:20.684Z,29.49
2022-07-29T07:34:50.955Z,29.42
2022-07-29T07:37:23.673Z,28.86
2022-07-29T07:39:53.761Z,29.51
2022-07-29T07:42:23.944Z,29.14
2022-07-29T07:45:12.580Z,28.99
2022-07-29T07:47:44.072Z,29.68
2022-07-29T07:50:18.862Z,29.54
2022-07-29T07:52:58.844Z,30.19
2022-07-29T07:55:42.417Z,30.13
2022-07-29T07:58:19.976Z,30.21
2022-07-29T08:00:50.690Z,29.84
2022-07-29T08:03:20.959Z,30.02
2022-07-29T08:05:52.151Z,30.51
2022-07-29T08:08:25.139Z,29.91
2022-07-29T08:11:02.276Z,30.46
2022-07-29T08:13:35.706Z,30.51
2022-07-29T08:16:12.744Z,30.30
2022-07-29T08:18:44.190Z,30.31
2022-07-29T08:21:14.905Z,31.02
2022-07-29T08:24:00.655Z,31.12
2022-07-29T08:26:33.056Z,31.10
2022-07-29T08:29:03.626Z,31.27
2022-07-29T08:31:35.074Z,31.04
2022-07-29T08:34:05.511Z,31.47
2022-07-29T08:36:35.819Z,31.26
2022-07-29T08:39:08.754Z,31.24
2022-07-29T08:41:39.481Z,31.47
2022-07-29T08:44:09.780Z,31.25
2022-07-29T08:46:42.408Z,31.81
2022-07-29T08:49:12.746Z,31.82
2022-07-29T08:51:49.228Z,31.97
2022-07-29T08:54:27.796Z,31.86
2022-07-29T08:56:59.773Z,31.85
2022-07-29T08:59:34.505Z,31.97
2022-07-29T09:02:06.865Z,32.05
2022-07-29T09:04:39.891Z,32.20
2022-07-29T09:07:10.586Z,32.12
2022-07-29T09:09:43.846Z,32.11
2022-07-29T09:12:27.813Z,32.16
2022-07-29T09:14:59.784Z,32.25
2022-07-29T09:17:46.490Z,31.98
2022-07-29T09:20:19.737Z,32.09
2022-07-29T09:22:52.007Z,32.51
2022-07-29T09:25:41.319Z,32.88
2022-07-29T09:28:12.708Z,33.05
2022-07-29T09:30:55.246Z,33.17
2022-07-29T09:33:26.519Z,33.29
2022-07-29T09:36:08.246Z,33.36
2022-07-29T09:38:39.158Z,33.34
2022-07-29T09:41:11.941Z,33.04
2022-07-29T09:43:43.647Z,33.31
2022-07-29T09:46:15.809Z,33.57
2022-07-29T09:48:46.195Z,33.44
2022-07-29T09:51:38.309Z,33.34
2022-07-29T09:54:26.860Z,33.26
2022-07-29T09:56:59.839Z,33.45
2022-07-29T09:59:30.633Z,33.66
2022-07-29T10:02:01.127Z,33.60
2022-07-29T10:04:42.913Z,33.52
2022-07-29T10:07:13.424Z,33.30
2022-07-29T10:09:53.457Z,33.54
2022-07-29T10:12:26.848Z,34.08
2022-07-29T10:14:57.273Z,34.29
2022-07-29T10:17:27.498Z,34.42
2022-07-29T10:19:57.932Z,33.77
2022-07-29T10:22:52.059Z,33.75
2022-07-29T10:25:19.954Z,34.06
2022-07-29T10:27:53.539Z,34.19
2022-07-29T10:30:25.496Z,34.33
2022-07-29T10:33:29.737Z,33.12
2022-07-29T10:36:16.298Z,32.94
2022-07-29T10:38:52.730Z,33.49
2022-07-29T10:41:44.292Z,34.34
2022-07-29T10:44:23.129Z,34.84
2022-07-29T10:46:55.250Z,34.40
2022-07-29T10:49:30.285Z,34.29
2022-07-29T10:52:05.833Z,34.11
2022-07-29T10:54:51.672Z,33.77
2022-07-29T10:57:54.080Z,33.33
2022-07-29T11:00:35.088Z,34.26
2022-07-29T11:03:10.559Z,34.34
2022-07-29T11:06:02.981Z,34.30
2022-07-29T11:08:39.191Z,34.66
2022-07-29T11:11:44.002Z,34.44
2022-07-29T11:14:26.454Z,34.96
2022-07-29T11:17:09.135Z,34.99
2022-07-29T11:19:45.695Z,35.13
2022-07-29T11:22:45.993Z,34.78
2022-07-29T11:25:18.428Z,34.88
2022-07-29T11:27:49.126Z,35.02
2022-07-29T11:30:19.473Z,35.06
2022-07-29T11:33:01.154Z,35.17
2022-07-29T11:35:38.101Z,35.22
2022-07-29T11:38:29.209Z,35.43
2022-07-29T11:41:27.205Z,35.46
2022-07-29T11:43:59.333Z,35.35
2022-07-29T11:46:50.641Z,35.58
2022-07-29T11:49:32.102Z,35.65
2022-07-29T11:52:05.526Z,35.20
2022-07-29T11:54:57.459Z,34.56
2022-07-29T11:57:36.106Z,35.48
2022-07-29T12:00:12.497Z,35.52
2022-07-29T12:02:48.145Z,35.41
2022-07-29T12:05:36.483Z,35.49
2022-07-29T12:08:12.734Z,35.44
2022-07-29T12:10:47.233Z,35.61
2022-07-29T12:13:19.609Z,35.57
2022-07-29T12:16:00.071Z,34.83
2022-07-29T12:18:30.774Z,35.39
2022-07-29T12:21:05.338Z,35.56
2022-07-29T12:23:36.130Z,35.70
2022-07-29T12:26:10.908Z,35.70
2022-07-29T12:28:42.193Z,35.63
2022-07-29T12:31:43.517Z,35.74
2022-07-29T12:34:08.846Z,35.48
2022-07-29T12:36:42.990Z,36.10
2022-07-29T12:39:15.757Z,36.29
2022-07-29T12:41:47.152Z,36.02
2022-07-29T12:44:17.411Z,35.93
2022-07-29T12:46:49.488Z,35.24
2022-07-29T12:49:25.677Z,35.51
2022-07-29T12:51:58.990Z,35.76
2022-07-29T12:54:29.820Z,35.57
2022-07-29T12:57:05.325Z,35.27
2022-07-29T12:59:36.221Z,34.70
2022-07-29T13:02:08.723Z,34.47
2022-07-29T13:04:39.313Z,34.54
2022-07-29T13:07:13.092Z,34.88
2022-07-29T13:09:47.139Z,34.70
2022-07-29T13:12:18.040Z,34.80
2022-07-29T13:14:50.451Z,35.13
2022-07-29T13:17:24.107Z,34.69
2022-07-29T13:19:55.929Z,35.29
2022-07-29T13:22:30.444Z,35.40
2022-07-29T13:25:03.054Z,35.10
2022-07-29T13:27:33.680Z,34.80
2022-07-29T13:30:05.482Z,35.33
2022-07-29T13:32:37.478Z,35.64
2022-07-29T13:35:10.351Z,35.65
2022-07-29T13:37:43.771Z,36.08
2022-07-29T13:40:15.340Z,35.70
2022-07-29T13:42:46.108Z,34.97
2022-07-29T13:45:22.983Z,35.57
2022-07-29T13:47:53.354Z,35.71
2022-07-29T13:50:23.705Z,35.39
2022-07-29T13:52:56.551Z,35.70
2022-07-29T13:55:26.896Z,34.85
2022-07-29T13:57:57.132Z,34.53
2022-07-29T14:00:27.598Z,34.43
2022-07-29T14:02:57.849Z,33.88
2022-07-29T14:05:28.094Z,33.81
2022-07-29T14:08:03.580Z,33.72
2022-07-29T14:10:33.746Z,33.93
2022-07-29T14:13:04.085Z,34.27
2022-07-29T14:15:39.301Z,34.38
2022-07-29T14:18:09.754Z,34.34
2022-07-29T14:20:40.472Z,34.61
2022-07-29T14:23:16.222Z,34.70
2022-07-29T14:25:50.206Z,34.52
2022-07-29T14:28:20.851Z,34.74
2022-07-29T14:30:51.543Z,34.52
2022-07-29T14:33:22.931Z,34.77
2022-07-29T14:35:53.593Z,34.63
2022-07-29T14:38:27.966Z,34.71
2022-07-29T14:40:58.688Z,34.90
2022-07-29T14:43:29.415Z,34.86
2022-07-29T14:46:04.026Z,34.96
2022-07-29T14:48:36.407Z,34.90
2022-07-29T14:51:07.277Z,34.99
2022-07-29T14:53:40.861Z,34.49
2022-07-29T14:56:35.582Z,34.65
2022-07-29T14:59:01.924Z,34.67
2022-07-29T15:01:32.115Z,34.47
2022-07-29T15:04:02.311Z,34.58
2022-07-29T15:06:32.469Z,34.21
2022-07-29T15:09:05.311Z,34.16
2022-07-29T15:11:38.744Z,33.99
2022-07-29T15:17:44.884Z,33.97
2022-07-29T15:20:15.629Z,33.96
2022-07-29T15:22:45.838Z,33.75
2022-07-29T15:25:18.616Z,33.74
2022-07-29T15:27:52.343Z,33.76
2022-07-29T15:30:31.472Z,33.80
2022-07-29T15:33:04.878Z,33.61
2022-07-29T15:35:40.505Z,33.46
2022-07-29T15:38:11.580Z,33.79
2022-07-29T15:40:45.575Z,33.87
2022-07-29T15:43:15.786Z,33.81
2022-07-29T15:46:09.555Z,33.93
2022-07-29T15:48:42.098Z,33.47
2022-07-29T15:51:12.005Z,33.29
2022-07-29T15:53:42.614Z,33.43
2022-07-29T15:56:15.447Z,33.51
2022-07-29T15:58:46.728Z,33.59
2022-07-29T16:01:17.702Z,33.61
2022-07-29T16:03:47.996Z,33.48
2022-07-29T16:06:18.338Z,33.36
2022-07-29T16:08:49.147Z,33.20
2022-07-29T16:11:21.904Z,33.35
2022-07-29T16:13:53.726Z,33.25
2022-07-29T16:16:23.901Z,33.37
2022-07-29T16:18:54.279Z,33.37
2022-07-29T16:21:25.188Z,33.21
2022-07-29T16:23:55.750Z,33.37
2022-07-29T16:26:28.754Z,33.35
2022-07-29T16:29:00.075Z,33.36
2022-07-29T16:31:30.909Z,33.25
2022-07-29T16:34:01.084Z,33.06
2022-07-29T16:36:31.305Z,32.94
2022-07-29T16:39:02.029Z,32.94
2022-07-29T16:41:35.019Z,32.79
2022-07-29T16:44:05.455Z,32.56
2022-07-29T16:46:37.867Z,32.46
2022-07-29T16:49:10.446Z,32.49
2022-07-29T16:51:40.749Z,32.38
2022-07-29T16:54:11.600Z,32.36
2022-07-29T16:56:44.408Z,32.29
2022-07-29T16:59:14.681Z,32.30
2022-07-29T17:01:44.901Z,32.13
2022-07-29T17:04:15.262Z,32.05
2022-07-29T17:06:45.585Z,32.00
2022-07-29T17:09:19.526Z,31.85
2022-07-29T17:11:55.023Z,31.82
2022-07-29T17:14:27.436Z,31.78
2022-07-29T17:17:01.208Z,31.75
2022-07-29T17:19:33.861Z,31.65
2022-07-29T17:22:13.104Z,31.52
2022-07-29T17:24:49.140Z,31.44
2022-07-29T17:27:22.127Z,31.32
2022-07-29T17:29:52.283Z,31.26
2022-07-29T17:32:22.454Z,31.10
2022-07-29T17:34:52.824Z,31.15
2022-07-29T17:37:23.112Z,30.92
2022-07-29T17:39:56.210Z,30.80
2022-07-29T17:42:31.329Z,30.71
2022-07-29T17:45:01.092Z,30.68
2022-07-29T17:47:31.222Z,30.47
2022-07-29T17:50:01.429Z,30.41
2022-07-29T17:52:31.577Z,30.41
2022-07-29T17:55:02.690Z,30.27
2022-07-29T17:57:35.377Z,29.96
2022-07-29T18:00:08.415Z,29.85
2022-07-29T18:02:41.819Z,29.72
2022-07-29T18:05:12.354Z,29.51
2022-07-29T18:07:42.503Z,29.45
2022-07-29T18:10:13.150Z,29.21
2022-07-29T18:12:45.913Z,29.15
2022-07-29T18:15:15.945Z,29.09
2022-07-29T18:17:56.604Z,28.98
2022-07-29T18:20:28.197Z,28.89
2022-07-29T18:22:58.595Z,28.76
2022-07-29T18:25:30.141Z,28.62
2022-07-29T18:28:02.897Z,28.53
2022-07-29T18:30:34.066Z,28.36
2022-07-29T18:33:21.697Z,28.23
2022-07-29T18:36:11.109Z,28.13
2022-07-29T18:38:43.009Z,28.04
2022-07-29T18:41:13.155Z,27.96
2022-07-29T18:43:45.997Z,27.89
2022-07-29T18:46:17.244Z,27.90
2022-07-29T18:48:48.942Z,27.79
2022-07-29T18:51:19.308Z,27.69
2022-07-29T18:53:49.422Z,27.52
2022-07-29T18:56:19.621Z,27.41
2022-07-29T18:58:52.610Z,27.34
2022-07-29T19:01:23.139Z,27.29
2022-07-29T19:04:01.885Z,27.22
2022-07-29T19:06:32.269Z,27.15
2022-07-29T19:09:02.655Z,27.09
2022-07-29T19:11:33.103Z,27.02
2022-07-29T19:14:06.472Z,26.93
2022-07-29T19:16:36.947Z,26.87
2022-07-29T19:19:07.650Z,26.81
2022-07-29T19:21:37.771Z,26.76
2022-07-29T19:24:15.278Z,26.68
2022-07-29T19:26:46.941Z,26.68
2022-07-29T19:29:20.687Z,26.65
2022-07-29T19:31:51.215Z,26.61
2022-07-29T19:34:21.825Z,26.60
2022-07-29T19:36:52.530Z,26.50
2022-07-29T19:39:31.965Z,26.52
2022-07-29T19:42:06.802Z,26.43
2022-07-29T19:44:40.645Z,26.46
2022-07-29T19:47:17.334Z,26.44
2022-07-29T19:49:48.058Z,26.47
2022-07-29T19:52:18.525Z,26.43
2022-07-29T19:54:49.529Z,26.35
2022-07-29T19:57:20.045Z,26.31
2022-07-29T19:59:53.734Z,26.32
2022-07-29T20:02:24.448Z,26.31
2022-07-29T20:04:54.993Z,26.35
2022-07-29T20:07:25.579Z,26.29
2022-07-29T20:09:57.154Z,26.27
2022-07-29T20:12:27.626Z,26.22
2022-07-29T20:15:00.774Z,26.32
2022-07-29T20:17:31.175Z,26.29
2022-07-29T20:20:02.792Z,26.58
2022-07-29T20:22:33.567Z,26.61
2022-07-29T20:25:04.331Z,26.71
2022-07-29T20:27:37.066Z,26.72
2022-07-29T20:30:13.618Z,26.85
2022-07-29T20:32:44.938Z,26.88
2022-07-29T20:35:15.683Z,26.90
2022-07-29T20:37:52.281Z,26.96
2022-07-29T20:40:26.822Z,26.86
2022-07-29T20:42:57.856Z,26.78
2022-07-29T20:45:34.770Z,26.73
2022-07-29T20:48:05.635Z,26.66
2022-07-29T20:50:38.933Z,26.63
2022-07-29T20:53:09.515Z,26.61
2022-07-29T20:55:40.073Z,26.54
2022-07-29T20:58:10.592Z,26.54
2022-07-29T21:00:46.167Z,26.44
2022-07-29T21:03:18.661Z,26.47
2022-07-29T21:05:49.161Z,26.48
2022-07-29T21:08:19.713Z,26.48
2022-07-29T21:10:50.536Z,26.48
2022-07-29T21:13:22.844Z,26.54
2022-07-29T21:16:02.011Z,26.42
2022-07-29T21:18:37.806Z,26.43
2022-07-29T21:21:08.984Z,26.37
2022-07-29T21:23:39.738Z,26.39
2022-07-29T21:26:13.869Z,26.23
2022-07-29T21:28:41.546Z,26.25
2022-07-29T21:31:17.170Z,26.15
2022-07-29T21:33:49.795Z,26.13
2022-07-29T21:36:47.217Z,26.01
2022-07-29T21:39:12.320Z,26.02
2022-07-29T21:41:43.499Z,25.97
2022-07-29T21:44:14.193Z,25.90
2022-07-29T21:46:47.990Z,25.86
2022-07-29T21:49:18.763Z,25.90
2022-07-29T21:51:49.242Z,25.79
2022-07-29T21:54:21.192Z,25.76
2022-07-29T21:56:52.664Z,25.67
2022-07-29T21:59:23.358Z,25.64
2022-07-29T22:01:56.904Z,25.57
2022-07-29T22:04:27.435Z,25.51
2022-07-29T22:06:58.527Z,25.40
2022-07-29T22:09:29.837Z,25.39
2022-07-29T22:12:00.400Z,25.40
2022-07-29T22:14:30.854Z,25.42
2022-07-29T22:17:04.317Z,25.34
2022-07-29T22:19:35.042Z,25.35
2022-07-29T22:22:05.900Z,25.35
2022-07-29T22:24:36.881Z,25.31
2022-07-29T22:27:07.524Z,25.21
2022-07-29T22:29:37.688Z,25.12
2022-07-29T22:32:11.418Z,25.06
2022-07-29T22:34:41.870Z,25.01
2022-07-29T22:37:12.241Z,24.98
2022-07-29T22:39:42.683Z,24.89
2022-07-29T22:42:13.079Z,24.90
2022-07-29T22:44:43.688Z,24.61
2022-07-29T22:47:17.011Z,24.46
2022-07-29T22:49:47.499Z,24.39
2022-07-29T22:52:17.724Z,24.30
2022-07-29T22:54:48.003Z,24.21
2022-07-29T22:57:18.502Z,24.08
2022-07-29T22:59:48.827Z,24.04
2022-07-29T23:02:22.149Z,24.02
2022-07-29T23:04:52.821Z,24.07
2022-07-29T23:07:23.423Z,23.96
2022-07-29T23:09:53.945Z,23.96
2022-07-29T23:12:24.268Z,23.98
2022-07-29T23:14:54.632Z,24.00
2022-07-29T23:17:27.701Z,23.96
2022-07-29T23:19:58.095Z,23.85
2022-07-29T23:22:28.542Z,23.85
2022-07-29T23:24:59.174Z,23.79
2022-07-29T23:27:29.573Z,23.80
2022-07-29T23:29:59.936Z,23.78
2022-07-29T23:32:33.581Z,23.82
2022-07-29T23:35:05.468Z,23.74
2022-07-29T23:37:35.708Z,23.67
2022-07-29T23:40:08.679Z,23.68
2022-07-29T23:42:42.355Z,23.64
2022-07-29T23:45:17.394Z,23.62
2022-07-29T23:47:50.595Z,23.70
2022-07-29T23:50:20.949Z,23.69
2022-07-29T23:52:51.852Z,23.54
2022-07-29T23:55:37.546Z,23.51
2022-07-29T23:58:09.474Z,23.44
